sensor_id;sensor_type;location;lat;lon;timestamp;P1;durP1;ratioP1;P2;durP2;ratioP2
24223;SDS011;12359;49.716;9.212;2022-09-09T00:06:43;6.13;;;2.65;;
24223;SDS011;12359;49.716;9.212;2022-09-09T00:09:19;2.90;;;1.90;;
24223;SDS011;12359;49.716;9.212;2022-09-09T00:11:51;3.03;;;2.08;;
24223;SDS011;12359;49.716;9.212;2022-09-09T00:14:37;5.65;;;2.20;;
24223;SDS011;12359;49.716;9.212;2022-09-09T00:19:43;6.57;;;1.90;;
24223;SDS011;12359;49.716;9.212;2022-09-09T00:22:24;2.85;;;1.90;;
24223;SDS011;12359;49.716;9.212;2022-09-09T00:24:53;3.97;;;2.40;;
24223;SDS011;12359;49.716;9.212;2022-09-09T00:32:27;5.22;;;4.68;;
24223;SDS011;12359;49.716;9.212;2022-09-09T00:34:56;8.30;;;6.03;;
24223;SDS011;12359;49.716;9.212;2022-09-09T00:37:28;8.95;;;6.28;;
24223;SDS011;12359;49.716;9.212;2022-09-09T00:39:57;7.20;;;4.70;;
24223;SDS011;12359;49.716;9.212;2022-09-09T00:42:41;14.60;;;5.65;;
24223;SDS011;12359;49.716;9.212;2022-09-09T00:47:46;8.43;;;6.95;;
24223;SDS011;12359;49.716;9.212;2022-09-09T00:58:25;6.18;;;3.30;;
24223;SDS011;12359;49.716;9.212;2022-09-09T01:00:53;5.55;;;3.47;;
24223;SDS011;12359;49.716;9.212;2022-09-09T01:03:52;4.90;;;4.25;;
24223;SDS011;12359;49.716;9.212;2022-09-09T01:06:33;4.55;;;3.92;;
24223;SDS011;12359;49.716;9.212;2022-09-09T01:14:31;6.28;;;5.20;;
24223;SDS011;12359;49.716;9.212;2022-09-09T01:17:02;6.13;;;3.97;;
24223;SDS011;12359;49.716;9.212;2022-09-09T01:28:09;5.53;;;4.93;;
24223;SDS011;12359;49.716;9.212;2022-09-09T01:30:39;6.05;;;5.40;;
24223;SDS011;12359;49.716;9.212;2022-09-09T01:33:07;13.18;;;5.65;;
24223;SDS011;12359;49.716;9.212;2022-09-09T01:35:55;6.13;;;4.38;;
24223;SDS011;12359;49.716;9.212;2022-09-09T01:38:25;6.03;;;4.75;;
24223;SDS011;12359;49.716;9.212;2022-09-09T01:40:52;4.32;;;3.92;;
24223;SDS011;12359;49.716;9.212;2022-09-09T01:43:22;7.22;;;4.05;;
24223;SDS011;12359;49.716;9.212;2022-09-09T01:45:51;5.68;;;4.18;;
24223;SDS011;12359;49.716;9.212;2022-09-09T01:48:19;4.68;;;3.83;;
24223;SDS011;12359;49.716;9.212;2022-09-09T01:50:47;9.25;;;3.70;;
24223;SDS011;12359;49.716;9.212;2022-09-09T01:53:14;4.35;;;3.50;;
24223;SDS011;12359;49.716;9.212;2022-09-09T01:55:43;7.07;;;4.30;;
24223;SDS011;12359;49.716;9.212;2022-09-09T01:58:34;7.57;;;4.10;;
24223;SDS011;12359;49.716;9.212;2022-09-09T02:01:15;6.65;;;3.63;;
24223;SDS011;12359;49.716;9.212;2022-09-09T02:03:53;3.80;;;3.25;;
24223;SDS011;12359;49.716;9.212;2022-09-09T02:06:35;7.18;;;3.63;;
24223;SDS011;12359;49.716;9.212;2022-09-09T02:09:04;4.97;;;3.47;;
24223;SDS011;12359;49.716;9.212;2022-09-09T02:11:32;6.50;;;3.75;;
24223;SDS011;12359;49.716;9.212;2022-09-09T02:14:05;12.52;;;3.72;;
24223;SDS011;12359;49.716;9.212;2022-09-09T02:17:09;5.97;;;4.03;;
24223;SDS011;12359;49.716;9.212;2022-09-09T02:19:32;4.22;;;3.25;;
24223;SDS011;12359;49.716;9.212;2022-09-09T02:22:20;4.70;;;4.07;;
24223;SDS011;12359;49.716;9.212;2022-09-09T02:24:49;10.65;;;4.53;;
24223;SDS011;12359;49.716;9.212;2022-09-09T02:27:20;9.00;;;4.55;;
24223;SDS011;12359;49.716;9.212;2022-09-09T02:29:46;6.88;;;4.00;;
24223;SDS011;12359;49.716;9.212;2022-09-09T02:32:15;6.32;;;3.83;;
24223;SDS011;12359;49.716;9.212;2022-09-09T02:34:46;6.10;;;3.38;;
24223;SDS011;12359;49.716;9.212;2022-09-09T02:37:15;7.55;;;3.53;;
24223;SDS011;12359;49.716;9.212;2022-09-09T02:39:43;9.70;;;3.75;;
24223;SDS011;12359;49.716;9.212;2022-09-09T02:42:09;12.00;;;5.22;;
24223;SDS011;12359;49.716;9.212;2022-09-09T02:44:35;5.60;;;3.75;;
24223;SDS011;12359;49.716;9.212;2022-09-09T02:52:04;5.53;;;4.10;;
24223;SDS011;12359;49.716;9.212;2022-09-09T02:54:33;6.13;;;3.58;;
24223;SDS011;12359;49.716;9.212;2022-09-09T02:59:37;5.75;;;4.25;;
24223;SDS011;12359;49.716;9.212;2022-09-09T03:02:04;5.60;;;3.75;;
24223;SDS011;12359;49.716;9.212;2022-09-09T03:04:29;7.70;;;4.13;;
24223;SDS011;12359;49.716;9.212;2022-09-09T03:06:56;7.13;;;3.95;;
24223;SDS011;12359;49.716;9.212;2022-09-09T03:09:23;6.95;;;3.28;;
24223;SDS011;12359;49.716;9.212;2022-09-09T03:11:50;5.38;;;3.58;;
24223;SDS011;12359;49.716;9.212;2022-09-09T03:14:16;7.43;;;3.47;;
24223;SDS011;12359;49.716;9.212;2022-09-09T03:16:46;7.47;;;4.07;;
24223;SDS011;12359;49.716;9.212;2022-09-09T03:19:12;6.75;;;4.13;;
24223;SDS011;12359;49.716;9.212;2022-09-09T03:21:37;7.22;;;4.45;;
24223;SDS011;12359;49.716;9.212;2022-09-09T03:24:04;6.93;;;4.70;;
24223;SDS011;12359;49.716;9.212;2022-09-09T03:26:30;5.68;;;3.55;;
24223;SDS011;12359;49.716;9.212;2022-09-09T03:28:56;9.27;;;3.55;;
24223;SDS011;12359;49.716;9.212;2022-09-09T03:31:22;7.30;;;4.20;;
24223;SDS011;12359;49.716;9.212;2022-09-09T03:33:48;5.60;;;4.20;;
24223;SDS011;12359;49.716;9.212;2022-09-09T03:36:14;6.30;;;4.22;;
24223;SDS011;12359;49.716;9.212;2022-09-09T03:38:40;6.15;;;4.20;;
24223;SDS011;12359;49.716;9.212;2022-09-09T03:41:06;7.07;;;4.40;;
24223;SDS011;12359;49.716;9.212;2022-09-09T03:43:32;7.05;;;4.20;;
24223;SDS011;12359;49.716;9.212;2022-09-09T03:45:59;5.35;;;3.83;;
24223;SDS011;12359;49.716;9.212;2022-09-09T03:48:25;3.60;;;3.30;;
24223;SDS011;12359;49.716;9.212;2022-09-09T03:50:53;5.82;;;3.65;;
24223;SDS011;12359;49.716;9.212;2022-09-09T03:53:21;5.38;;;3.92;;
24223;SDS011;12359;49.716;9.212;2022-09-09T03:55:50;7.95;;;4.50;;
24223;SDS011;12359;49.716;9.212;2022-09-09T03:58:19;8.23;;;5.57;;
24223;SDS011;12359;49.716;9.212;2022-09-09T04:00:55;8.00;;;5.35;;
24223;SDS011;12359;49.716;9.212;2022-09-09T04:03:23;12.98;;;5.72;;
24223;SDS011;12359;49.716;9.212;2022-09-09T04:05:52;7.93;;;4.65;;
24223;SDS011;12359;49.716;9.212;2022-09-09T04:08:19;10.25;;;5.25;;
24223;SDS011;12359;49.716;9.212;2022-09-09T04:10:49;10.07;;;5.13;;
24223;SDS011;12359;49.716;9.212;2022-09-09T04:13:15;4.32;;;3.53;;
24223;SDS011;12359;49.716;9.212;2022-09-09T04:15:43;5.30;;;3.40;;
24223;SDS011;12359;49.716;9.212;2022-09-09T04:18:14;3.90;;;3.20;;
24223;SDS011;12359;49.716;9.212;2022-09-09T04:20:40;6.78;;;3.78;;
24223;SDS011;12359;49.716;9.212;2022-09-09T04:23:08;9.70;;;5.10;;
24223;SDS011;12359;49.716;9.212;2022-09-09T04:25:34;7.53;;;4.03;;
24223;SDS011;12359;49.716;9.212;2022-09-09T04:27:59;7.18;;;4.78;;
24223;SDS011;12359;49.716;9.212;2022-09-09T04:30:25;4.82;;;3.90;;
24223;SDS011;12359;49.716;9.212;2022-09-09T04:32:52;6.40;;;3.92;;
24223;SDS011;12359;49.716;9.212;2022-09-09T04:35:18;4.38;;;3.63;;
24223;SDS011;12359;49.716;9.212;2022-09-09T04:37:45;4.97;;;3.65;;
24223;SDS011;12359;49.716;9.212;2022-09-09T04:40:11;4.63;;;3.00;;
24223;SDS011;12359;49.716;9.212;2022-09-09T04:42:37;5.07;;;3.28;;
24223;SDS011;12359;49.716;9.212;2022-09-09T04:45:03;4.50;;;3.00;;
24223;SDS011;12359;49.716;9.212;2022-09-09T04:47:30;7.90;;;4.18;;
24223;SDS011;12359;49.716;9.212;2022-09-09T04:49:56;6.72;;;3.08;;
24223;SDS011;12359;49.716;9.212;2022-09-09T04:52:22;3.83;;;3.03;;
24223;SDS011;12359;49.716;9.212;2022-09-09T04:54:48;3.72;;;2.38;;
24223;SDS011;12359;49.716;9.212;2022-09-09T04:57:13;2.53;;;2.33;;
24223;SDS011;12359;49.716;9.212;2022-09-09T04:59:39;7.18;;;2.92;;
24223;SDS011;12359;49.716;9.212;2022-09-09T05:02:05;4.40;;;2.45;;
24223;SDS011;12359;49.716;9.212;2022-09-09T05:04:31;3.28;;;2.08;;
24223;SDS011;12359;49.716;9.212;2022-09-09T05:06:58;7.10;;;3.05;;
24223;SDS011;12359;49.716;9.212;2022-09-09T05:09:24;3.92;;;2.22;;
24223;SDS011;12359;49.716;9.212;2022-09-09T05:11:50;3.65;;;2.00;;
24223;SDS011;12359;49.716;9.212;2022-09-09T05:14:16;4.68;;;2.13;;
24223;SDS011;12359;49.716;9.212;2022-09-09T05:16:44;3.88;;;2.20;;
24223;SDS011;12359;49.716;9.212;2022-09-09T05:19:10;2.70;;;2.15;;
24223;SDS011;12359;49.716;9.212;2022-09-09T05:21:36;3.67;;;2.40;;
24223;SDS011;12359;49.716;9.212;2022-09-09T05:24:02;6.10;;;3.00;;
24223;SDS011;12359;49.716;9.212;2022-09-09T05:26:28;4.60;;;2.25;;
24223;SDS011;12359;49.716;9.212;2022-09-09T05:28:54;4.22;;;1.40;;
24223;SDS011;12359;49.716;9.212;2022-09-09T05:31:20;2.65;;;2.03;;
24223;SDS011;12359;49.716;9.212;2022-09-09T05:33:46;3.17;;;1.63;;
24223;SDS011;12359;49.716;9.212;2022-09-09T05:36:17;2.03;;;1.55;;
24223;SDS011;12359;49.716;9.212;2022-09-09T05:38:45;5.93;;;1.63;;
24223;SDS011;12359;49.716;9.212;2022-09-09T05:41:11;1.88;;;1.27;;
24223;SDS011;12359;49.716;9.212;2022-09-09T05:43:38;1.73;;;0.98;;
24223;SDS011;12359;49.716;9.212;2022-09-09T05:46:07;4.15;;;1.42;;
24223;SDS011;12359;49.716;9.212;2022-09-09T05:48:35;1.95;;;1.40;;
24223;SDS011;12359;49.716;9.212;2022-09-09T05:51:08;5.03;;;1.27;;
24223;SDS011;12359;49.716;9.212;2022-09-09T05:53:37;2.30;;;1.20;;
24223;SDS011;12359;49.716;9.212;2022-09-09T05:56:10;3.38;;;1.58;;
24223;SDS011;12359;49.716;9.212;2022-09-09T05:58:39;4.35;;;1.48;;
24223;SDS011;12359;49.716;9.212;2022-09-09T06:03:32;2.50;;;1.20;;
24223;SDS011;12359;49.716;9.212;2022-09-09T06:06:00;2.50;;;1.10;;
24223;SDS011;12359;49.716;9.212;2022-09-09T06:08:26;2.10;;;1.23;;
24223;SDS011;12359;49.716;9.212;2022-09-09T06:10:52;3.58;;;1.00;;
24223;SDS011;12359;49.716;9.212;2022-09-09T06:13:18;7.18;;;1.45;;
24223;SDS011;12359;49.716;9.212;2022-09-09T06:15:50;2.58;;;1.48;;
24223;SDS011;12359;49.716;9.212;2022-09-09T06:18:17;3.83;;;1.35;;
24223;SDS011;12359;49.716;9.212;2022-09-09T06:20:52;1.33;;;1.17;;
24223;SDS011;12359;49.716;9.212;2022-09-09T06:23:22;1.30;;;0.85;;
24223;SDS011;12359;49.716;9.212;2022-09-09T06:25:48;1.67;;;1.00;;
24223;SDS011;12359;49.716;9.212;2022-09-09T06:28:14;2.72;;;1.70;;
24223;SDS011;12359;49.716;9.212;2022-09-09T06:30:42;2.22;;;1.10;;
24223;SDS011;12359;49.716;9.212;2022-09-09T06:33:08;1.70;;;0.95;;
24223;SDS011;12359;49.716;9.212;2022-09-09T06:35:34;4.68;;;1.05;;
24223;SDS011;12359;49.716;9.212;2022-09-09T06:38:00;1.27;;;0.90;;
24223;SDS011;12359;49.716;9.212;2022-09-09T06:40:25;5.13;;;1.33;;
24223;SDS011;12359;49.716;9.212;2022-09-09T06:42:51;4.80;;;1.20;;
24223;SDS011;12359;49.716;9.212;2022-09-09T06:45:17;3.83;;;1.48;;
24223;SDS011;12359;49.716;9.212;2022-09-09T06:47:43;1.30;;;0.73;;
24223;SDS011;12359;49.716;9.212;2022-09-09T06:50:09;2.05;;;1.02;;
24223;SDS011;12359;49.716;9.212;2022-09-09T06:52:35;2.17;;;1.00;;
24223;SDS011;12359;49.716;9.212;2022-09-09T06:55:01;2.90;;;1.55;;
24223;SDS011;12359;49.716;9.212;2022-09-09T06:57:27;3.83;;;1.38;;
24223;SDS011;12359;49.716;9.212;2022-09-09T06:59:53;1.70;;;0.80;;
24223;SDS011;12359;49.716;9.212;2022-09-09T07:02:19;1.55;;;0.80;;
24223;SDS011;12359;49.716;9.212;2022-09-09T07:04:45;1.58;;;0.98;;
24223;SDS011;12359;49.716;9.212;2022-09-09T07:07:10;2.10;;;1.02;;
24223;SDS011;12359;49.716;9.212;2022-09-09T07:09:38;3.65;;;1.00;;
24223;SDS011;12359;49.716;9.212;2022-09-09T07:12:05;2.40;;;0.65;;
24223;SDS011;12359;49.716;9.212;2022-09-09T07:14:31;1.25;;;0.88;;
24223;SDS011;12359;49.716;9.212;2022-09-09T07:16:58;4.05;;;1.42;;
24223;SDS011;12359;49.716;9.212;2022-09-09T07:19:25;1.90;;;1.00;;
24223;SDS011;12359;49.716;9.212;2022-09-09T07:21:51;3.58;;;1.65;;
24223;SDS011;12359;49.716;9.212;2022-09-09T07:24:16;4.15;;;1.35;;
24223;SDS011;12359;49.716;9.212;2022-09-09T07:26:42;4.82;;;1.60;;
24223;SDS011;12359;49.716;9.212;2022-09-09T07:29:09;2.67;;;0.95;;
24223;SDS011;12359;49.716;9.212;2022-09-09T07:31:38;5.22;;;0.90;;
24223;SDS011;12359;49.716;9.212;2022-09-09T07:34:05;2.47;;;1.10;;
24223;SDS011;12359;49.716;9.212;2022-09-09T07:36:32;3.67;;;0.80;;
24223;SDS011;12359;49.716;9.212;2022-09-09T07:39:08;1.70;;;0.95;;
24223;SDS011;12359;49.716;9.212;2022-09-09T07:41:43;0.93;;;0.40;;
24223;SDS011;12359;49.716;9.212;2022-09-09T07:44:11;1.43;;;1.00;;
24223;SDS011;12359;49.716;9.212;2022-09-09T07:46:39;13.20;;;1.23;;
24223;SDS011;12359;49.716;9.212;2022-09-09T07:49:06;5.20;;;1.08;;
24223;SDS011;12359;49.716;9.212;2022-09-09T07:51:34;3.45;;;1.33;;
24223;SDS011;12359;49.716;9.212;2022-09-09T07:54:02;7.00;;;0.82;;
24223;SDS011;12359;49.716;9.212;2022-09-09T07:56:29;2.78;;;1.40;;
24223;SDS011;12359;49.716;9.212;2022-09-09T07:58:56;1.25;;;0.68;;
24223;SDS011;12359;49.716;9.212;2022-09-09T08:01:27;3.88;;;1.55;;
24223;SDS011;12359;49.716;9.212;2022-09-09T08:03:59;1.92;;;1.00;;
24223;SDS011;12359;49.716;9.212;2022-09-09T08:06:27;6.40;;;1.17;;
24223;SDS011;12359;49.716;9.212;2022-09-09T08:08:58;4.05;;;1.52;;
24223;SDS011;12359;49.716;9.212;2022-09-09T08:11:25;3.40;;;1.45;;
24223;SDS011;12359;49.716;9.212;2022-09-09T08:13:53;2.97;;;1.67;;
24223;SDS011;12359;49.716;9.212;2022-09-09T08:16:20;2.92;;;0.80;;
24223;SDS011;12359;49.716;9.212;2022-09-09T08:18:51;2.28;;;0.98;;
24223;SDS011;12359;49.716;9.212;2022-09-09T08:21:19;3.97;;;1.20;;
24223;SDS011;12359;49.716;9.212;2022-09-09T08:23:50;3.38;;;1.20;;
24223;SDS011;12359;49.716;9.212;2022-09-09T08:26:19;5.63;;;1.38;;
24223;SDS011;12359;49.716;9.212;2022-09-09T08:28:52;1.60;;;0.73;;
24223;SDS011;12359;49.716;9.212;2022-09-09T08:31:24;3.05;;;0.95;;
24223;SDS011;12359;49.716;9.212;2022-09-09T08:33:53;3.13;;;1.27;;
24223;SDS011;12359;49.716;9.212;2022-09-09T08:36:20;1.52;;;1.00;;
24223;SDS011;12359;49.716;9.212;2022-09-09T08:38:49;2.78;;;0.93;;
24223;SDS011;12359;49.716;9.212;2022-09-09T08:49:36;1.60;;;1.10;;
24223;SDS011;12359;49.716;9.212;2022-09-09T08:52:28;5.85;;;1.23;;
24223;SDS011;12359;49.716;9.212;2022-09-09T08:55:25;8.60;;;1.73;;
24223;SDS011;12359;49.716;9.212;2022-09-09T08:57:56;1.95;;;1.13;;
24223;SDS011;12359;49.716;9.212;2022-09-09T09:00:25;3.33;;;1.52;;
24223;SDS011;12359;49.716;9.212;2022-09-09T09:03:48;7.20;;;1.60;;
24223;SDS011;12359;49.716;9.212;2022-09-09T09:09:00;4.03;;;1.60;;
24223;SDS011;12359;49.716;9.212;2022-09-09T09:11:49;2.38;;;1.15;;
24223;SDS011;12359;49.716;9.212;2022-09-09T09:14:19;6.00;;;1.25;;
24223;SDS011;12359;49.716;9.212;2022-09-09T09:16:58;3.65;;;1.33;;
24223;SDS011;12359;49.716;9.212;2022-09-09T09:19:27;6.70;;;1.85;;
24223;SDS011;12359;49.716;9.212;2022-09-09T09:24:49;4.53;;;1.30;;
24223;SDS011;12359;49.716;9.212;2022-09-09T09:27:40;3.08;;;1.65;;
24223;SDS011;12359;49.716;9.212;2022-09-09T09:30:12;2.67;;;1.73;;
24223;SDS011;12359;49.716;9.212;2022-09-09T09:33:00;3.03;;;1.33;;
24223;SDS011;12359;49.716;9.212;2022-09-09T09:35:30;6.13;;;1.98;;
24223;SDS011;12359;49.716;9.212;2022-09-09T09:37:55;4.57;;;1.10;;
24223;SDS011;12359;49.716;9.212;2022-09-09T09:40:21;5.18;;;1.38;;
24223;SDS011;12359;49.716;9.212;2022-09-09T09:42:49;2.83;;;1.33;;
24223;SDS011;12359;49.716;9.212;2022-09-09T09:48:10;2.33;;;1.20;;
24223;SDS011;12359;49.716;9.212;2022-09-09T09:50:56;3.97;;;1.42;;
24223;SDS011;12359;49.716;9.212;2022-09-09T09:56:03;9.30;;;1.85;;
24223;SDS011;12359;49.716;9.212;2022-09-09T09:58:30;4.32;;;1.20;;
24223;SDS011;12359;49.716;9.212;2022-09-09T10:00:59;2.28;;;1.50;;
24223;SDS011;12359;49.716;9.212;2022-09-09T10:03:30;2.22;;;0.82;;
24223;SDS011;12359;49.716;9.212;2022-09-09T10:05:57;5.22;;;1.30;;
24223;SDS011;12359;49.716;9.212;2022-09-09T10:08:24;3.35;;;1.20;;
24223;SDS011;12359;49.716;9.212;2022-09-09T10:11:16;6.95;;;1.73;;
24223;SDS011;12359;49.716;9.212;2022-09-09T10:19:16;1.05;;;0.75;;
24223;SDS011;12359;49.716;9.212;2022-09-09T10:30:19;2.47;;;0.90;;
24223;SDS011;12359;49.716;9.212;2022-09-09T10:33:16;3.42;;;1.35;;
24223;SDS011;12359;49.716;9.212;2022-09-09T10:35:51;2.00;;;0.80;;
24223;SDS011;12359;49.716;9.212;2022-09-09T10:41:05;5.55;;;1.67;;
24223;SDS011;12359;49.716;9.212;2022-09-09T10:49:30;4.97;;;1.42;;
24223;SDS011;12359;49.716;9.212;2022-09-09T10:57:36;4.75;;;2.08;;
24223;SDS011;12359;49.716;9.212;2022-09-09T11:00:50;6.32;;;1.33;;
24223;SDS011;12359;49.716;9.212;2022-09-09T11:03:02;5.68;;;1.98;;
24223;SDS011;12359;49.716;9.212;2022-09-09T11:05:41;5.40;;;1.70;;
24223;SDS011;12359;49.716;9.212;2022-09-09T11:11:02;3.92;;;1.00;;
24223;SDS011;12359;49.716;9.212;2022-09-09T11:19:04;3.47;;;1.55;;
24223;SDS011;12359;49.716;9.212;2022-09-09T11:21:46;3.83;;;1.00;;
24223;SDS011;12359;49.716;9.212;2022-09-09T11:24:26;3.85;;;1.15;;
24223;SDS011;12359;49.716;9.212;2022-09-09T11:27:15;4.82;;;1.98;;
24223;SDS011;12359;49.716;9.212;2022-09-09T11:30:05;5.03;;;1.52;;
24223;SDS011;12359;49.716;9.212;2022-09-09T11:40:46;2.60;;;0.70;;
24223;SDS011;12359;49.716;9.212;2022-09-09T11:43:28;1.75;;;1.13;;
24223;SDS011;12359;49.716;9.212;2022-09-09T11:45:58;3.58;;;1.20;;
24223;SDS011;12359;49.716;9.212;2022-09-09T11:51:10;6.13;;;1.20;;
24223;SDS011;12359;49.716;9.212;2022-09-09T11:53:50;5.18;;;1.60;;
24223;SDS011;12359;49.716;9.212;2022-09-09T11:59:31;1.73;;;1.13;;
24223;SDS011;12359;49.716;9.212;2022-09-09T12:02:02;1.92;;;0.65;;
24223;SDS011;12359;49.716;9.212;2022-09-09T12:07:25;4.18;;;1.00;;
24223;SDS011;12359;49.716;9.212;2022-09-09T12:10:02;2.28;;;1.10;;
24223;SDS011;12359;49.716;9.212;2022-09-09T12:12:47;8.63;;;1.75;;
24223;SDS011;12359;49.716;9.212;2022-09-09T12:17:46;1.13;;;0.80;;
24223;SDS011;12359;49.716;9.212;2022-09-09T12:23:10;2.67;;;1.15;;
24223;SDS011;12359;49.716;9.212;2022-09-09T12:28:35;1.98;;;1.27;;
24223;SDS011;12359;49.716;9.212;2022-09-09T12:34:04;2.85;;;0.85;;
24223;SDS011;12359;49.716;9.212;2022-09-09T12:36:41;3.13;;;1.05;;
24223;SDS011;12359;49.716;9.212;2022-09-09T12:39:21;1.95;;;1.23;;
24223;SDS011;12359;49.716;9.212;2022-09-09T12:41:55;2.13;;;1.77;;
24223;SDS011;12359;49.716;9.212;2022-09-09T12:44:22;1.33;;;0.88;;
24223;SDS011;12359;49.716;9.212;2022-09-09T12:46:50;2.45;;;0.88;;
24223;SDS011;12359;49.716;9.212;2022-09-09T12:49:36;4.28;;;1.45;;
24223;SDS011;12359;49.716;9.212;2022-09-09T12:52:06;3.85;;;1.00;;
24223;SDS011;12359;49.716;9.212;2022-09-09T12:54:43;1.63;;;0.80;;
24223;SDS011;12359;49.716;9.212;2022-09-09T12:57:12;2.95;;;1.25;;
24223;SDS011;12359;49.716;9.212;2022-09-09T12:59:41;1.65;;;1.13;;
24223;SDS011;12359;49.716;9.212;2022-09-09T13:02:23;0.60;;;0.60;;
24223;SDS011;12359;49.716;9.212;2022-09-09T13:04:51;1.23;;;0.82;;
24223;SDS011;12359;49.716;9.212;2022-09-09T13:07:19;3.72;;;1.20;;
24223;SDS011;12359;49.716;9.212;2022-09-09T13:09:47;1.88;;;0.80;;
24223;SDS011;12359;49.716;9.212;2022-09-09T13:12:21;5.15;;;1.10;;
24223;SDS011;12359;49.716;9.212;2022-09-09T13:14:48;3.85;;;0.98;;
24223;SDS011;12359;49.716;9.212;2022-09-09T13:17:18;3.80;;;1.23;;
24223;SDS011;12359;49.716;9.212;2022-09-09T13:19:54;3.38;;;1.13;;
24223;SDS011;12359;49.716;9.212;2022-09-09T13:27:31;3.80;;;1.08;;
24223;SDS011;12359;49.716;9.212;2022-09-09T13:29:59;1.15;;;0.77;;
24223;SDS011;12359;49.716;9.212;2022-09-09T13:32:27;2.83;;;1.05;;
24223;SDS011;12359;49.716;9.212;2022-09-09T13:34:55;7.60;;;1.83;;
24223;SDS011;12359;49.716;9.212;2022-09-09T13:37:31;8.02;;;1.85;;
24223;SDS011;12359;49.716;9.212;2022-09-09T13:40:02;5.47;;;2.08;;
24223;SDS011;12359;49.716;9.212;2022-09-09T13:42:34;8.20;;;2.72;;
24223;SDS011;12359;49.716;9.212;2022-09-09T13:45:05;3.85;;;1.40;;
24223;SDS011;12359;49.716;9.212;2022-09-09T13:47:40;5.35;;;1.33;;
24223;SDS011;12359;49.716;9.212;2022-09-09T13:50:26;1.77;;;0.85;;
24223;SDS011;12359;49.716;9.212;2022-09-09T13:52:54;5.35;;;1.02;;
24223;SDS011;12359;49.716;9.212;2022-09-09T13:55:23;4.60;;;1.30;;
24223;SDS011;12359;49.716;9.212;2022-09-09T13:57:59;6.47;;;1.27;;
24223;SDS011;12359;49.716;9.212;2022-09-09T14:00:28;1.98;;;0.73;;
24223;SDS011;12359;49.716;9.212;2022-09-09T14:02:55;1.58;;;0.68;;
24223;SDS011;12359;49.716;9.212;2022-09-09T14:05:21;1.73;;;1.02;;
24223;SDS011;12359;49.716;9.212;2022-09-09T14:07:47;3.85;;;0.70;;
24223;SDS011;12359;49.716;9.212;2022-09-09T14:10:14;2.42;;;0.77;;
24223;SDS011;12359;49.716;9.212;2022-09-09T14:12:40;5.68;;;0.63;;
24223;SDS011;12359;49.716;9.212;2022-09-09T14:15:06;1.33;;;1.20;;
24223;SDS011;12359;49.716;9.212;2022-09-09T14:17:35;2.05;;;0.57;;
24223;SDS011;12359;49.716;9.212;2022-09-09T14:20:01;3.15;;;1.10;;
24223;SDS011;12359;49.716;9.212;2022-09-09T14:22:30;0.60;;;0.60;;
24223;SDS011;12359;49.716;9.212;2022-09-09T14:24:56;3.55;;;1.30;;
24223;SDS011;12359;49.716;9.212;2022-09-09T14:27:22;2.28;;;1.35;;
24223;SDS011;12359;49.716;9.212;2022-09-09T14:29:48;1.20;;;0.77;;
24223;SDS011;12359;49.716;9.212;2022-09-09T14:32:13;4.40;;;1.15;;
24223;SDS011;12359;49.716;9.212;2022-09-09T14:34:39;0.88;;;0.68;;
24223;SDS011;12359;49.716;9.212;2022-09-09T14:37:05;1.63;;;0.98;;
24223;SDS011;12359;49.716;9.212;2022-09-09T14:39:31;2.42;;;1.20;;
24223;SDS011;12359;49.716;9.212;2022-09-09T14:41:57;2.15;;;0.80;;
24223;SDS011;12359;49.716;9.212;2022-09-09T14:44:23;1.52;;;0.98;;
24223;SDS011;12359;49.716;9.212;2022-09-09T14:46:48;1.77;;;0.95;;
24223;SDS011;12359;49.716;9.212;2022-09-09T14:49:15;1.27;;;0.82;;
24223;SDS011;12359;49.716;9.212;2022-09-09T14:51:41;6.60;;;1.70;;
24223;SDS011;12359;49.716;9.212;2022-09-09T14:54:06;5.32;;;1.75;;
24223;SDS011;12359;49.716;9.212;2022-09-09T14:56:32;1.98;;;1.85;;
24223;SDS011;12359;49.716;9.212;2022-09-09T14:59:02;5.20;;;1.52;;
24223;SDS011;12359;49.716;9.212;2022-09-09T15:01:27;3.75;;;1.83;;
24223;SDS011;12359;49.716;9.212;2022-09-09T15:06:22;2.33;;;0.93;;
24223;SDS011;12359;49.716;9.212;2022-09-09T15:08:50;1.70;;;0.98;;
24223;SDS011;12359;49.716;9.212;2022-09-09T15:11:18;2.80;;;0.90;;
24223;SDS011;12359;49.716;9.212;2022-09-09T15:13:44;1.40;;;0.55;;
24223;SDS011;12359;49.716;9.212;2022-09-09T15:16:14;1.52;;;1.15;;
24223;SDS011;12359;49.716;9.212;2022-09-09T15:18:41;1.15;;;0.73;;
24223;SDS011;12359;49.716;9.212;2022-09-09T15:21:08;1.65;;;0.57;;
24223;SDS011;12359;49.716;9.212;2022-09-09T15:23:35;0.50;;;0.50;;
24223;SDS011;12359;49.716;9.212;2022-09-09T15:26:01;2.78;;;1.05;;
24223;SDS011;12359;49.716;9.212;2022-09-09T15:28:28;1.95;;;0.90;;
24223;SDS011;12359;49.716;9.212;2022-09-09T15:30:54;1.27;;;0.80;;
24223;SDS011;12359;49.716;9.212;2022-09-09T15:33:21;2.55;;;1.05;;
24223;SDS011;12359;49.716;9.212;2022-09-09T15:35:47;2.15;;;0.98;;
24223;SDS011;12359;49.716;9.212;2022-09-09T15:38:14;2.13;;;0.95;;
24223;SDS011;12359;49.716;9.212;2022-09-09T15:40:40;2.95;;;0.80;;
24223;SDS011;12359;49.716;9.212;2022-09-09T15:43:06;1.67;;;1.42;;
24223;SDS011;12359;49.716;9.212;2022-09-09T15:45:32;2.60;;;0.85;;
24223;SDS011;12359;49.716;9.212;2022-09-09T15:48:02;1.10;;;0.70;;
24223;SDS011;12359;49.716;9.212;2022-09-09T15:50:29;3.85;;;0.75;;
24223;SDS011;12359;49.716;9.212;2022-09-09T15:52:58;3.40;;;1.10;;
24223;SDS011;12359;49.716;9.212;2022-09-09T15:55:24;3.30;;;0.77;;
24223;SDS011;12359;49.716;9.212;2022-09-09T15:57:50;2.05;;;0.95;;
24223;SDS011;12359;49.716;9.212;2022-09-09T16:00:20;0.88;;;0.55;;
24223;SDS011;12359;49.716;9.212;2022-09-09T16:02:47;1.45;;;0.50;;
24223;SDS011;12359;49.716;9.212;2022-09-09T16:05:13;2.72;;;1.08;;
24223;SDS011;12359;49.716;9.212;2022-09-09T16:07:39;2.38;;;0.85;;
24223;SDS011;12359;49.716;9.212;2022-09-09T16:10:07;0.55;;;0.55;;
24223;SDS011;12359;49.716;9.212;2022-09-09T16:12:33;1.23;;;0.90;;
24223;SDS011;12359;49.716;9.212;2022-09-09T16:14:59;2.25;;;0.80;;
24223;SDS011;12359;49.716;9.212;2022-09-09T16:17:24;1.30;;;1.10;;
24223;SDS011;12359;49.716;9.212;2022-09-09T16:19:50;1.38;;;0.88;;
24223;SDS011;12359;49.716;9.212;2022-09-09T16:22:16;1.75;;;1.13;;
24223;SDS011;12359;49.716;9.212;2022-09-09T16:24:43;1.60;;;0.88;;
24223;SDS011;12359;49.716;9.212;2022-09-09T16:27:10;3.33;;;1.13;;
24223;SDS011;12359;49.716;9.212;2022-09-09T16:29:36;1.85;;;1.05;;
24223;SDS011;12359;49.716;9.212;2022-09-09T16:32:02;3.15;;;1.40;;
24223;SDS011;12359;49.716;9.212;2022-09-09T16:34:27;1.23;;;1.05;;
24223;SDS011;12359;49.716;9.212;2022-09-09T16:36:53;4.78;;;2.65;;
24223;SDS011;12359;49.716;9.212;2022-09-09T16:39:19;3.45;;;1.90;;
24223;SDS011;12359;49.716;9.212;2022-09-09T16:41:46;9.57;;;1.88;;
24223;SDS011;12359;49.716;9.212;2022-09-09T16:44:14;2.78;;;1.15;;
24223;SDS011;12359;49.716;9.212;2022-09-09T16:46:42;0.80;;;0.63;;
24223;SDS011;12359;49.716;9.212;2022-09-09T16:49:09;1.50;;;0.93;;
24223;SDS011;12359;49.716;9.212;2022-09-09T16:51:40;1.40;;;0.80;;
24223;SDS011;12359;49.716;9.212;2022-09-09T16:54:09;4.10;;;1.25;;
24223;SDS011;12359;49.716;9.212;2022-09-09T16:56:37;4.32;;;1.27;;
24223;SDS011;12359;49.716;9.212;2022-09-09T16:59:10;1.92;;;1.00;;
24223;SDS011;12359;49.716;9.212;2022-09-09T17:01:40;2.13;;;0.90;;
24223;SDS011;12359;49.716;9.212;2022-09-09T17:04:14;3.15;;;1.33;;
24223;SDS011;12359;49.716;9.212;2022-09-09T17:06:45;4.25;;;1.00;;
24223;SDS011;12359;49.716;9.212;2022-09-09T17:09:14;5.35;;;1.52;;
24223;SDS011;12359;49.716;9.212;2022-09-09T17:11:40;2.80;;;0.80;;
24223;SDS011;12359;49.716;9.212;2022-09-09T17:14:06;0.75;;;0.60;;
24223;SDS011;12359;49.716;9.212;2022-09-09T17:16:34;2.75;;;0.80;;
24223;SDS011;12359;49.716;9.212;2022-09-09T17:19:00;1.83;;;1.45;;
24223;SDS011;12359;49.716;9.212;2022-09-09T17:21:28;1.95;;;1.30;;
24223;SDS011;12359;49.716;9.212;2022-09-09T17:23:55;1.90;;;0.95;;